Sd416 Nippon — SKPF — position and weather

sailwx.info

Track history (hours):
 
Tides and Currents Weather Stations Pressure Air Temp Water Temp Dewpoint Dewpoint Depression Visibility Wind Speed Wind Dir Waves Ship Positions

Sd416 Nippon

Last reported at 2015-Jul-30 03:34 UTC. Time now 2015-Jul-30 04:02 UTC.
Position N 58°56' E 011°10'.

Length 17 m; draft 2.5 m.

Type: Fishing. MMSI: 266163000.

Date/timePositionNaut miles runAvg speedWind from/ knotsBaromVisibWave heightAir tempDewpointWater temp
2015-Jul-30 03:34N 58°56' E 011°10'0 0.0
2015-Jul-30 02:34N 58°56' E 011°10'0 0.0
2015-Jul-30 01:33N 58°56' E 011°10'0 0.0
2015-Jul-30 00:33N 58°56' E 011°10'0 0.0
2015-Jul-29 23:31N 58°56' E 011°10'0 0.0
2015-Jul-29 22:32N 58°56' E 011°10'0 0.0
2015-Jul-29 21:05N 58°56' E 011°10'0 0.0
2015-Jul-29 20:08N 58°56' E 011°10'0 0.0
2015-Jul-28 05:24N 58°56' E 011°10'0 0.0
2015-Jul-28 02:32N 58°56' E 011°10'0 0.0
2015-Jul-28 01:25N 58°56' E 011°10'0 0.0
2015-Jul-28 00:29N 58°56' E 011°10'0 0.0
2015-Jul-27 23:29N 58°56' E 011°10'0 0.0
2015-Jul-27 22:23N 58°56' E 011°10'0 0.0
2015-Jul-27 21:28N 58°56' E 011°10'0 0.0
2015-Jul-27 20:33N 58°56' E 011°10'0 0.0
2015-Jul-27 19:22N 58°56' E 011°10'0 0.0
2015-Jul-27 15:29N 58°56' E 011°10'0 0.0
2015-Jul-27 14:32N 58°56' E 011°10'0 0.0
2015-Jul-27 13:33N 58°56' E 011°10'0 0.0
2015-Jul-27 12:23N 58°56' E 011°10'0 0.0
2015-Jul-27 11:28N 58°56' E 011°10'0 0.0
2015-Jul-27 10:31N 58°56' E 011°10'  
2015-Jul-21 16:29N 58°48' E 010°43'1 1.2
2015-Jul-21 15:32N 58°47' E 010°43'1 0.9
2015-Jul-21 14:19N 58°46' E 010°43'6 0.8
2015-Jul-21 07:23N 58°52' E 010°41'1 1.3
2015-Jul-21 06:33N 58°53' E 010°42'1 0.6
2015-Jul-21 05:26N 58°52' E 010°42'2 1.3
2015-Jul-21 04:10N 58°51' E 010°43'1 1.2
2015-Jul-21 03:18N 58°50' E 010°43'1 1.2
2015-Jul-21 02:33N 58°49' E 010°43'1 1.2
2015-Jul-21 01:24N 58°47' E 010°43'1 1.3
2015-Jul-21 00:33N 58°46' E 010°44'6 2.8
2015-Jul-20 22:32N 58°51' E 010°50'5 5.6
2015-Jul-20 21:33N 58°55' E 010°57'3 1.0
2015-Jul-20 18:06N 58°55' E 011°03'12 7.7
2015-Jul-20 16:32N 58°49' E 010°44'1 0.8
2015-Jul-20 15:33N 58°48' E 010°43'1 1.2
2015-Jul-20 14:25N 58°47' E 010°44'  
Track history (hours):
 
Tides and Currents Weather Stations Pressure Air Temp Water Temp Dewpoint Dewpoint Depression Visibility Wind Speed Wind Dir Waves Ship Positions

Sd416 Nippon

Last reported at 2015-Jul-30 03:34 UTC. Time now 2015-Jul-30 04:02 UTC.
Position N 58°56' E 011°10'.

Length 17 m; draft 2.5 m.

Type: Fishing. MMSI: 266163000.

Date/timePositionNaut miles runAvg speedWind from/ knotsBaromVisibWave heightAir tempDewpointWater temp
2015-Jul-30 03:34N 58°56' E 011°10'0 0.0
2015-Jul-30 02:34N 58°56' E 011°10'0 0.0
2015-Jul-30 01:33N 58°56' E 011°10'0 0.0
2015-Jul-30 00:33N 58°56' E 011°10'0 0.0
2015-Jul-29 23:31N 58°56' E 011°10'0 0.0
2015-Jul-29 22:32N 58°56' E 011°10'0 0.0
2015-Jul-29 21:05N 58°56' E 011°10'0 0.0
2015-Jul-29 20:08N 58°56' E 011°10'0 0.0
2015-Jul-28 05:24N 58°56' E 011°10'0 0.0
2015-Jul-28 02:32N 58°56' E 011°10'0 0.0
2015-Jul-28 01:25N 58°56' E 011°10'0 0.0
2015-Jul-28 00:29N 58°56' E 011°10'0 0.0
2015-Jul-27 23:29N 58°56' E 011°10'0 0.0
2015-Jul-27 22:23N 58°56' E 011°10'0 0.0
2015-Jul-27 21:28N 58°56' E 011°10'0 0.0
2015-Jul-27 20:33N 58°56' E 011°10'0 0.0
2015-Jul-27 19:22N 58°56' E 011°10'0 0.0
2015-Jul-27 15:29N 58°56' E 011°10'0 0.0
2015-Jul-27 14:32N 58°56' E 011°10'0 0.0
2015-Jul-27 13:33N 58°56' E 011°10'0 0.0
2015-Jul-27 12:23N 58°56' E 011°10'0 0.0
2015-Jul-27 11:28N 58°56' E 011°10'0 0.0
2015-Jul-27 10:31N 58°56' E 011°10'  
2015-Jul-21 16:29N 58°48' E 010°43'1 1.2
2015-Jul-21 15:32N 58°47' E 010°43'1 0.9
2015-Jul-21 14:19N 58°46' E 010°43'6 0.8
2015-Jul-21 07:23N 58°52' E 010°41'1 1.3
2015-Jul-21 06:33N 58°53' E 010°42'1 0.6
2015-Jul-21 05:26N 58°52' E 010°42'2 1.3
2015-Jul-21 04:10N 58°51' E 010°43'1 1.2
2015-Jul-21 03:18N 58°50' E 010°43'1 1.2
2015-Jul-21 02:33N 58°49' E 010°43'1 1.2
2015-Jul-21 01:24N 58°47' E 010°43'1 1.3
2015-Jul-21 00:33N 58°46' E 010°44'6 2.8
2015-Jul-20 22:32N 58°51' E 010°50'5 5.6
2015-Jul-20 21:33N 58°55' E 010°57'3 1.0
2015-Jul-20 18:06N 58°55' E 011°03'12 7.7
2015-Jul-20 16:32N 58°49' E 010°44'1 0.8
2015-Jul-20 15:33N 58°48' E 010°43'1 1.2
2015-Jul-20 14:25N 58°47' E 010°44'  

Dump ship's entire track history